Time;durP1;ratioP1;P1;durP2;ratioP2;P2;SDS_P1;SDS_P2;PMS_P1;PMS_P2;Temp;Humidity;BMP_temperature;BMP_pressure;BME280_temperature;BME280_humidity;BME280_pressure;Samples;Min_cycle;Max_cycle;Signal;HPM_P1;HPM_P2
2022/09/16 00:01:54;;;;;;;10.67;2.70;;;;;;;25.30;60.17;98770.22;5072348;28;20231;-68
2022/09/16 00:04:21;;;;;;;6.97;2.90;;;;;;;25.26;60.30;98767.28;5072086;28;20663;-67
2022/09/16 00:06:47;;;;;;;7.40;2.80;;;;;;;25.29;60.44;98765.91;5071930;28;20238;-68
2022/09/16 00:09:14;;;;;;;10.63;3.20;;;;;;;25.20;60.06;98744.06;5072731;28;20224;-68
2022/09/16 00:11:41;;;;;;;5.17;3.00;;;;;;;25.17;60.81;98762.91;5072064;28;20622;-68
2022/09/16 00:14:07;;;;;;;8.20;3.13;;;;;;;25.23;60.48;98761.69;5073223;28;20199;-68
2022/09/16 00:16:36;;;;;;;6.77;3.07;;;;;;;25.33;60.48;98759.56;5072142;28;20195;-68
2022/09/16 00:19:02;;;;;;;8.70;3.00;;;;;;;25.45;60.06;98756.25;5072072;28;20188;-67
2022/09/16 00:21:30;;;;;;;7.80;2.73;;;;;;;25.48;60.11;98752.94;5052354;28;20216;-68
2022/09/16 00:23:57;;;;;;;4.33;2.73;;;;;;;25.50;59.60;98753.41;5051760;28;20196;-67
2022/09/16 00:26:24;;;;;;;6.83;3.17;;;;;;;25.49;59.59;98755.34;5052337;28;20201;-67
2022/09/16 00:28:51;;;;;;;6.87;3.20;;;;;;;25.43;59.62;98745.69;5051609;28;20197;-67
2022/09/16 00:31:18;;;;;;;5.57;3.30;;;;;;;25.39;59.77;98749.34;5052884;28;20212;-68
2022/09/16 00:33:46;;;;;;;8.80;3.80;;;;;;;25.34;60.34;98746.75;5053692;28;20737;-67
2022/09/16 00:36:15;;;;;;;13.43;3.80;;;;;;;25.27;60.68;98749.06;5056984;28;20193;-67
2022/09/16 00:38:42;;;;;;;13.27;3.80;;;;;;;25.20;61.09;98748.69;5055688;28;20196;-67
2022/09/16 00:41:15;;;;;;;9.30;3.10;;;;;;;25.17;61.40;98750.13;5055626;28;20634;-68
2022/09/16 00:43:51;;;;;;;10.50;3.97;;;;;;;25.08;62.04;98754.69;5055684;28;20651;-67
2022/09/16 00:46:22;;;;;;;11.73;3.20;;;;;;;24.91;62.55;98755.34;5056291;28;20204;-67
2022/09/16 00:48:51;;;;;;;6.90;3.70;;;;;;;24.85;62.18;98756.59;5055585;28;20250;-67
2022/09/16 00:51:19;;;;;;;9.37;3.03;;;;;;;24.92;62.38;98767.81;5056517;28;20212;-67
2022/09/16 00:53:55;;;;;;;7.93;3.30;;;;;;;24.83;62.57;98758.00;5056007;28;20193;-68
2022/09/16 00:56:23;;;;;;;8.33;3.43;;;;;;;24.85;62.69;98758.47;5055459;28;20648;-68
2022/09/16 00:58:54;;;;;;;6.17;3.10;;;;;;;24.92;62.91;98770.53;5055880;28;20188;-67
2022/09/16 01:01:21;;;;;;;4.10;3.33;;;;;;;25.00;62.37;98764.38;5055307;28;20721;-67
2022/09/16 01:03:53;;;;;;;10.30;3.47;;;;;;;25.04;62.24;98770.78;5055489;28;20193;-67
2022/09/16 01:06:23;;;;;;;5.63;3.40;;;;;;;25.08;61.97;98777.22;5055686;28;20246;-67
2022/09/16 01:08:50;;;;;;;5.70;3.30;;;;;;;25.13;61.47;98783.66;5055114;28;20235;-67
2022/09/16 01:11:17;;;;;;;9.17;4.17;;;;;;;25.08;61.81;98786.50;5055502;28;20196;-67
2022/09/16 01:13:45;;;;;;;8.17;3.40;;;;;;;25.07;62.16;98787.63;5055771;28;20196;-67
2022/09/16 01:16:21;;;;;;;6.67;3.60;;;;;;;25.02;61.87;98776.88;5055134;28;20203;-67
2022/09/16 01:18:56;;;;;;;8.33;3.93;;;;;;;25.07;61.55;98784.91;5055442;28;20207;-67
2022/09/16 01:21:43;;;;;;;6.53;3.67;;;;;;;25.13;61.92;98789.09;5073240;28;20700;-68
2022/09/16 01:24:40;;;;;;;5.47;3.67;;;;;;;25.20;61.40;98789.47;5074926;28;20640;-68
2022/09/16 01:27:52;;;;;;;7.70;3.67;;;;;;;25.13;61.60;98789.91;5075888;28;20602;-67
2022/09/16 01:30:43;;;;;;;7.50;3.47;;;;;;;25.10;62.07;98785.06;4993743;28;20219;-67
2022/09/16 01:33:20;;;;;;;13.87;3.77;;;;;;;25.06;62.13;98786.00;5069097;28;20235;-67
2022/09/16 01:36:06;;;;;;;8.43;3.80;;;;;;;25.08;62.04;98786.50;5074819;28;20245;-67
2022/09/16 01:38:47;;;;;;;8.03;3.50;;;;;;;25.02;62.10;98776.88;5074377;28;20726;-67
2022/09/16 01:41:24;;;;;;;8.53;3.70;;;;;;;24.99;61.58;98780.97;5074395;28;20636;-68
2022/09/16 01:43:59;;;;;;;7.33;4.00;;;;;;;24.89;62.20;98779.31;5074986;28;20226;-67
2022/09/16 01:46:38;;;;;;;18.60;4.20;;;;;;;24.89;62.59;98784.75;5073772;28;20236;-67
2022/09/16 01:49:16;;;;;;;7.47;3.70;;;;;;;24.88;62.82;98793.97;5074959;28;20245;-67
2022/09/16 01:51:50;;;;;;;12.17;4.03;;;;;;;24.88;62.29;98779.63;5074855;28;20241;-67
2022/09/16 01:54:23;;;;;;;8.33;3.87;;;;;;;24.89;62.72;98773.88;5074609;28;20195;-67
2022/09/16 01:56:58;;;;;;;10.90;3.70;;;;;;;24.90;62.91;98780.91;5075270;28;20191;-66
2022/09/16 01:59:32;;;;;;;9.53;3.60;;;;;;;24.85;62.76;98762.00;5073773;28;20663;-67
2022/09/16 02:02:05;;;;;;;9.83;3.90;;;;;;;24.89;62.52;98773.06;5074247;28;20717;-67
2022/09/16 02:04:37;;;;;;;7.77;3.77;;;;;;;24.97;62.12;98764.19;5074593;28;20313;-67
2022/09/16 02:07:09;;;;;;;5.13;3.30;;;;;;;25.07;61.93;98774.03;5074717;28;20640;-67
2022/09/16 02:09:42;;;;;;;10.07;3.70;;;;;;;25.10;61.77;98773.41;5074177;28;20235;-67
2022/09/16 02:12:15;;;;;;;9.50;3.90;;;;;;;25.06;62.00;98769.72;5074022;28;20195;-67
2022/09/16 02:14:45;;;;;;;9.43;4.07;;;;;;;25.02;61.86;98778.47;5074357;28;20184;-67
2022/09/16 02:17:17;;;;;;;10.67;4.33;;;;;;;25.02;61.91;98776.88;5074023;28;20211;-67
2022/09/16 02:19:49;;;;;;;8.40;3.40;;;;;;;25.02;62.09;98783.91;5069383;28;20189;-67
2022/09/16 02:22:20;;;;;;;8.90;4.20;;;;;;;25.03;61.91;98784.69;5055038;28;20212;-68
2022/09/16 02:24:48;;;;;;;7.63;3.63;;;;;;;25.08;61.96;98782.66;5053709;28;20188;-67
2022/09/16 02:27:18;;;;;;;8.07;3.57;;;;;;;25.13;60.65;98787.19;5053936;28;20621;-68
2022/09/16 02:29:50;;;;;;;11.13;3.87;;;;;;;25.12;60.99;98788.31;5054035;28;20207;-68
2022/09/16 02:32:21;;;;;;;6.03;3.30;;;;;;;25.21;60.13;98791.06;5053969;28;20193;-67
2022/09/16 02:34:51;;;;;;;8.23;3.50;;;;;;;25.21;60.49;98799.22;5053666;28;20183;-67
2022/09/16 02:37:22;;;;;;;10.17;3.50;;;;;;;25.25;60.35;98794.78;5054215;28;20200;-67
2022/09/16 02:39:55;;;;;;;8.53;3.77;;;;;;;25.27;59.92;98800.75;5053239;28;20247;-68
2022/09/16 02:42:22;;;;;;;6.40;3.93;;;;;;;25.34;59.61;98812.00;5053740;28;20209;-67
2022/09/16 02:44:49;;;;;;;7.67;3.67;;;;;;;25.41;59.06;98815.09;5053750;28;20197;-67
2022/09/16 02:47:22;;;;;;;11.97;3.97;;;;;;;25.45;58.26;98827.78;5053411;28;20660;-67
2022/09/16 02:49:57;;;;;;;11.33;4.13;;;;;;;25.25;59.16;98821.97;5053380;28;20211;-66
2022/09/16 02:52:35;;;;;;;14.43;4.30;;;;;;;25.20;59.07;98822.09;5054495;28;20191;-65
2022/09/16 02:55:07;;;;;;;7.47;3.33;;;;;;;25.12;59.05;98812.78;5053392;28;20276;-66
2022/09/16 02:57:35;;;;;;;10.23;4.03;;;;;;;25.08;59.59;98827.25;5053782;28;20270;-66
2022/09/16 03:00:02;;;;;;;9.83;3.43;;;;;;;24.98;59.73;98835.66;5052947;28;20188;-66
2022/09/16 03:02:33;;;;;;;13.10;4.03;;;;;;;24.95;59.75;98826.22;5053200;28;20266;-66
2022/09/16 03:05:00;;;;;;;10.73;3.80;;;;;;;24.78;60.18;98818.69;5053022;28;20246;-66
2022/09/16 03:07:27;;;;;;;8.13;3.90;;;;;;;24.67;61.01;98814.56;5052456;28;20660;-65
2022/09/16 03:09:54;;;;;;;11.73;3.57;;;;;;;24.68;61.23;98805.31;5052934;28;20649;-65
2022/09/16 03:12:41;;;;;;;9.37;3.67;;;;;;;24.68;60.78;98804.50;5053198;28;20204;-65
2022/09/16 03:15:33;;;;;;;10.87;4.00;;;;;;;24.68;60.96;98799.06;5049761;28;20656;-66
2022/09/16 03:18:22;;;;;;;16.10;3.77;;;;;;;24.67;61.11;98811.84;5053040;28;20199;-66
2022/09/16 03:20:58;;;;;;;10.60;4.17;;;;;;;24.71;60.37;98809.34;5067011;28;20194;-65
2022/09/16 03:23:37;;;;;;;9.03;3.67;;;;;;;24.64;60.97;98798.06;5072549;28;20696;-65
2022/09/16 03:26:15;;;;;;;9.87;4.20;;;;;;;24.60;61.21;98806.03;5072343;28;20229;-66
2022/09/16 03:28:50;;;;;;;11.60;4.17;;;;;;;24.55;61.58;98792.50;5073224;28;20187;-66
2022/09/16 03:31:25;;;;;;;9.23;3.70;;;;;;;24.42;61.89;98795.25;5072701;28;20186;-65
2022/09/16 03:34:00;;;;;;;16.30;4.63;;;;;;;24.31;62.44;98797.38;5072157;28;20191;-66
2022/09/16 03:36:32;;;;;;;13.20;4.37;;;;;;;24.18;62.84;98792.72;5072830;28;20190;-65
2022/09/16 03:39:01;;;;;;;13.63;4.83;;;;;;;24.10;63.49;98787.97;5072398;28;20222;-66
2022/09/16 03:41:29;;;;;;;12.77;4.60;;;;;;;23.94;63.74;98791.31;5072280;28;20716;-65
2022/09/16 03:43:57;;;;;;;18.67;5.47;;;;;;;23.77;64.33;98805.38;5072358;28;20225;-65
2022/09/16 03:46:25;;;;;;;16.50;4.93;;;;;;;23.74;64.78;98808.72;5072167;28;20194;-63
2022/09/16 03:48:53;;;;;;;13.37;4.47;;;;;;;23.77;65.56;98789.13;5072577;28;20193;-63
2022/09/16 03:51:20;;;;;;;13.23;5.00;;;;;;;23.96;65.00;98789.06;5073195;28;20271;-63
2022/09/16 03:53:46;;;;;;;18.17;4.43;;;;;;;24.20;64.03;98785.09;5071578;28;20202;-63
2022/09/16 03:56:13;;;;;;;11.87;4.80;;;;;;;24.31;63.45;98775.66;5071984;28;20279;-64
2022/09/16 03:58:40;;;;;;;11.40;4.50;;;;;;;24.43;62.61;98773.19;5071846;28;20735;-65
2022/09/16 04:01:06;;;;;;;13.37;4.40;;;;;;;24.57;61.81;98776.72;5071126;28;20572;-63
2022/09/16 04:03:36;;;;;;;15.93;4.33;;;;;;;24.68;62.03;98783.59;5071023;28;20226;-65
2022/09/16 04:06:04;;;;;;;17.60;4.90;;;;;;;24.81;60.96;98781.94;5071635;28;20192;-64
2022/09/16 04:08:31;;;;;;;14.43;5.50;;;;;;;24.90;61.26;98783.63;5071258;28;20276;-64
2022/09/16 04:11:00;;;;;;;18.43;5.47;;;;;;;25.02;60.63;98793.16;5072330;28;20579;-71
2022/09/16 04:13:29;;;;;;;20.03;5.30;;;;;;;25.15;60.56;98797.75;5072143;28;20724;-70
2022/09/16 04:15:56;;;;;;;14.73;5.10;;;;;;;25.30;59.61;98800.13;5071981;28;20207;-71
2022/09/16 04:18:22;;;;;;;13.97;5.40;;;;;;;25.38;59.42;98796.69;5072031;28;20188;-72
2022/09/16 04:20:49;;;;;;;20.97;5.80;;;;;;;25.46;58.85;98795.94;5058039;28;20247;-71
2022/09/16 04:23:17;;;;;;;32.03;6.80;;;;;;;25.44;58.72;98800.91;5051618;28;20220;-71
2022/09/16 04:25:44;;;;;;;16.90;5.37;;;;;;;25.36;59.29;98805.16;5051489;28;20188;-72
2022/09/16 04:28:11;;;;;;;15.40;5.73;;;;;;;25.42;58.64;98789.50;5052668;28;20601;-71
2022/09/16 04:30:37;;;;;;;20.00;5.73;;;;;;;25.65;58.05;98796.56;5051709;28;20254;-70
2022/09/16 04:33:04;;;;;;;23.57;6.00;;;;;;;25.83;57.50;98803.69;5058633;28;20200;-71
2022/09/16 04:35:31;;;;;;;29.67;6.23;;;;;;;26.00;57.07;98810.06;5065968;28;20752;-71
2022/09/16 04:37:57;;;;;;;24.77;5.83;;;;;;;26.02;56.53;98813.31;5071985;28;20191;-73
2022/09/16 04:40:25;;;;;;;22.33;6.00;;;;;;;26.17;56.63;98803.91;5071650;28;20200;-72
2022/09/16 04:42:52;;;;;;;20.53;5.97;;;;;;;26.35;55.83;98800.13;5071622;28;20219;-72
2022/09/16 04:45:19;;;;;;;17.67;6.23;;;;;;;26.59;55.36;98800.56;5071762;28;20655;-73
2022/09/16 04:47:46;;;;;;;27.33;6.50;;;;;;;26.81;54.15;98812.16;5071406;28;20187;-72
2022/09/16 04:50:12;;;;;;;21.07;5.53;;;;;;;26.97;53.99;98807.03;5072664;28;20206;-73
2022/09/16 04:52:39;;;;;;;28.43;6.47;;;;;;;27.15;53.83;98800.50;5073208;28;20218;-74
2022/09/16 04:55:06;;;;;;;21.60;6.50;;;;;;;27.36;52.92;98809.66;5072288;28;20671;-72
2022/09/16 04:57:34;;;;;;;27.57;7.17;;;;;;;27.53;52.31;98815.13;5071726;28;20196;-73
2022/09/16 05:00:02;;;;;;;19.37;6.43;;;;;;;27.67;51.64;98818.44;5071164;28;20730;-72
2022/09/16 05:02:29;;;;;;;26.20;7.40;;;;;;;27.79;51.57;98818.59;5071678;28;20227;-72
2022/09/16 05:04:56;;;;;;;28.23;6.80;;;;;;;27.97;51.10;98825.66;5071236;28;20192;-75
2022/09/16 05:07:23;;;;;;;26.23;6.47;;;;;;;28.11;50.03;98835.28;5071524;28;20192;-75
2022/09/16 05:09:49;;;;;;;20.23;5.53;;;;;;;28.39;49.13;98838.38;5072459;28;20630;-74
2022/09/16 05:12:16;;;;;;;18.60;5.47;;;;;;;28.54;47.58;98857.00;5071180;28;20196;-74
2022/09/16 05:14:44;;;;;;;19.17;6.33;;;;;;;28.71;47.12;98851.44;5071457;28;20184;-73
2022/09/16 05:17:11;;;;;;;13.90;5.37;;;;;;;28.83;46.25;98846.06;5071476;28;20664;-74
2022/09/16 05:19:38;;;;;;;18.17;5.23;;;;;;;28.83;46.30;98837.88;5067518;28;20204;-74
2022/09/16 05:22:06;;;;;;;10.40;4.90;;;;;;;28.90;46.41;98849.06;5061841;28;20262;-73
2022/09/16 05:24:35;;;;;;;13.93;5.33;;;;;;;29.13;45.97;98834.00;5071595;28;20243;-75
2022/09/16 05:27:02;;;;;;;20.13;4.63;;;;;;;29.32;44.38;98825.31;5075189;28;20199;-76
2022/09/16 05:29:29;;;;;;;15.53;4.43;;;;;;;29.45;43.92;98819.56;5075595;28;20545;-76
2022/09/16 05:31:57;;;;;;;15.63;4.80;;;;;;;29.63;42.99;98823.78;5074671;28;20188;-73
2022/09/16 05:34:27;;;;;;;15.27;4.70;;;;;;;29.75;42.64;98812.88;5075038;28;20303;-75
2022/09/16 05:36:54;;;;;;;43.43;6.87;;;;;;;30.08;42.99;98808.16;5074904;28;20251;-66
2022/09/16 05:39:22;;;;;;;16.17;4.93;;;;;;;30.25;41.83;98818.94;5074857;28;20252;-65
2022/09/16 05:41:50;;;;;;;22.50;5.00;;;;;;;30.36;41.40;98822.84;5074844;28;20226;-65
2022/09/16 05:44:17;;;;;;;11.77;4.50;;;;;;;30.58;41.02;98814.16;5074431;28;20223;-66
2022/09/16 05:46:43;;;;;;;16.13;4.10;;;;;;;30.92;39.82;98816.47;5074676;28;20192;-66
2022/09/16 05:49:11;;;;;;;18.87;5.17;;;;;;;31.23;39.24;98816.66;5074246;28;20262;-65
2022/09/16 05:51:40;;;;;;;14.67;4.63;;;;;;;31.33;39.88;98813.44;5071969;28;20199;-68
2022/09/16 05:54:07;;;;;;;19.87;5.70;;;;;;;31.45;38.49;98813.38;5055650;28;20203;-64
2022/09/16 05:56:34;;;;;;;23.03;4.40;;;;;;;31.56;38.38;98800.72;5063159;28;20661;-64
2022/09/16 05:59:02;;;;;;;16.20;4.83;;;;;;;31.70;38.18;98806.63;5054141;28;20246;-64
2022/09/16 06:01:30;;;;;;;11.67;4.20;;;;;;;31.88;37.09;98807.94;5054072;28;20648;-63
2022/09/16 06:03:57;;;;;;;16.43;4.60;;;;;;;31.95;36.40;98804.56;5053457;28;20306;-63
2022/09/16 06:06:27;;;;;;;16.63;4.93;;;;;;;32.28;35.00;98799.53;5052776;28;20189;-65
2022/09/16 06:08:57;;;;;;;18.53;5.03;;;;;;;32.26;34.99;98794.41;5053012;28;20238;-63
2022/09/16 06:11:24;;;;;;;17.20;4.87;;;;;;;32.49;34.97;98792.66;5052745;28;20262;-64
2022/09/16 06:13:54;;;;;;;21.40;4.97;;;;;;;32.73;34.78;98797.94;5051016;28;20196;-68
2022/09/16 06:16:21;;;;;;;16.60;5.00;;;;;;;32.53;34.18;98793.53;5050791;28;20192;-64
2022/09/16 06:18:48;;;;;;;15.60;5.17;;;;;;;32.38;35.39;98794.34;5048363;28;20619;-67
2022/09/16 06:21:15;;;;;;;19.80;4.63;;;;;;;32.44;35.13;98798.44;5066476;28;20242;-67
2022/09/16 06:23:43;;;;;;;21.63;5.53;;;;;;;32.50;35.48;98793.47;5066809;28;20219;-65
2022/09/16 06:26:16;;;;;;;23.50;5.93;;;;;;;32.27;37.09;98789.69;5065734;28;20196;-65
2022/09/16 06:28:43;;;;;;;14.43;4.50;;;;;;;32.32;36.61;98795.78;5046338;28;20189;-68
2022/09/16 06:31:12;;;;;;;26.97;5.97;;;;;;;32.66;36.42;98794.25;5047578;28;20200;-67
2022/09/16 06:33:40;;;;;;;30.43;6.83;;;;;;;32.74;37.64;98799.53;5047553;28;20204;-65
2022/09/16 06:36:09;;;;;;;30.03;7.00;;;;;;;32.66;37.63;98799.75;5055082;28;20978;-64
2022/09/16 06:38:36;;;;;;;25.70;6.77;;;;;;;32.70;37.36;98795.91;5067464;28;20565;-67
2022/09/16 06:41:06;;;;;;;21.23;5.97;;;;;;;32.78;37.50;98800.41;5063921;28;20192;-66
2022/09/16 06:43:34;;;;;;;20.93;5.27;;;;;;;32.80;37.39;98795.41;5063073;28;20645;-64
2022/09/16 06:46:04;;;;;;;10.37;5.37;;;;;;;32.81;36.35;98788.72;5065027;28;20188;-63
2022/09/16 06:48:33;;;;;;;11.27;4.50;;;;;;;32.76;35.40;98777.97;5066500;28;20188;-70
2022/09/16 06:51:01;;;;;;;22.67;5.17;;;;;;;32.95;35.15;98780.78;5067692;28;20235;-64
2022/09/16 06:53:28;;;;;;;14.03;4.10;;;;;;;33.01;35.43;98793.13;5067390;28;20266;-63
2022/09/16 06:55:56;;;;;;;16.23;4.57;;;;;;;33.03;34.82;98796.28;5052168;28;20280;-63
2022/09/16 06:58:24;;;;;;;18.07;4.27;;;;;;;33.08;35.07;98793.25;5053255;28;20262;-64
2022/09/16 07:00:51;;;;;;;13.67;4.20;;;;;;;33.01;35.12;98804.13;5061429;28;20188;-64
2022/09/16 07:03:17;;;;;;;11.40;4.57;;;;;;;32.82;34.89;98804.06;5071647;28;20281;-64
2022/09/16 07:05:44;;;;;;;12.93;3.90;;;;;;;32.84;34.96;98795.47;5071966;28;20285;-64
2022/09/16 07:08:11;;;;;;;9.77;4.47;;;;;;;32.70;35.02;98798.66;5072629;28;20622;-66
2022/09/16 07:10:37;;;;;;;10.57;3.50;;;;;;;32.67;34.94;98798.56;5072660;28;20196;-66
2022/09/16 07:13:04;;;;;;;15.70;3.97;;;;;;;32.73;34.84;98805.38;5072719;28;20191;-66
2022/09/16 07:15:32;;;;;;;7.33;3.67;;;;;;;32.64;35.18;98805.59;5072800;28;20191;-65
2022/09/16 07:17:59;;;;;;;17.23;4.10;;;;;;;32.72;35.40;98804.59;5070874;28;20192;-66
2022/09/16 07:20:26;;;;;;;11.70;3.37;;;;;;;32.86;34.88;98813.22;5059835;28;20258;-66
2022/09/16 07:22:53;;;;;;;10.47;3.50;;;;;;;32.86;34.55;98812.41;5050131;28;20201;-68
2022/09/16 07:25:20;;;;;;;7.97;3.70;;;;;;;32.93;35.05;98805.13;5050428;28;20581;-66
2022/09/16 07:27:47;;;;;;;22.23;4.10;;;;;;;33.24;34.36;98807.75;5050451;28;20207;-65
2022/09/16 07:30:14;;;;;;;14.43;3.90;;;;;;;33.46;34.08;98802.72;5050145;28;20242;-66
2022/09/16 07:32:42;;;;;;;24.83;3.92;;;;;;;33.71;33.54;98793.00;5051711;28;20193;-65
2022/09/16 07:35:09;;;;;;;11.55;4.10;;;;;;;33.93;33.53;98786.75;5053108;28;20567;-64
2022/09/16 07:37:36;;;;;;;9.82;3.50;;;;;;;34.19;33.05;98797.84;5052176;28;20252;-65
2022/09/16 07:40:04;;;;;;;13.68;4.13;;;;;;;34.40;32.13;98796.28;5051864;28;20205;-65
2022/09/16 07:42:31;;;;;;;11.43;3.55;;;;;;;34.60;32.16;98799.72;5050832;28;20196;-65
2022/09/16 07:44:58;;;;;;;12.85;3.72;;;;;;;34.65;32.51;98800.22;5050541;28;20632;-67
2022/09/16 07:47:24;;;;;;;15.88;4.05;;;;;;;34.71;31.92;98797.94;5050942;28;20242;-67
2022/09/16 07:49:54;;;;;;;14.23;3.55;;;;;;;34.88;31.50;98802.97;5052326;28;20197;-66
2022/09/16 07:52:22;;;;;;;11.10;3.20;;;;;;;35.08;31.61;98796.16;5051820;28;20185;-66
2022/09/16 07:54:49;;;;;;;11.73;3.83;;;;;;;35.15;31.93;98812.81;5051861;28;20286;-65
2022/09/16 07:57:16;;;;;;;12.82;3.97;;;;;;;35.08;30.98;98802.47;5051974;28;20224;-65
2022/09/16 07:59:43;;;;;;;14.20;4.18;;;;;;;35.14;30.99;98800.97;5051965;28;20716;-64
2022/09/16 08:02:09;;;;;;;8.68;3.40;;;;;;;35.19;30.01;98797.09;5051981;28;20192;-66
2022/09/16 08:04:36;;;;;;;13.85;4.57;;;;;;;35.11;30.35;98795.41;5051735;28;20262;-65
2022/09/16 08:07:05;;;;;;;8.13;3.25;;;;;;;35.16;30.64;98803.34;5051763;28;20204;-66
2022/09/16 08:09:32;;;;;;;13.07;3.30;;;;;;;35.36;30.47;98808.38;5052481;28;20298;-66
2022/09/16 08:12:01;;;;;;;8.15;3.42;;;;;;;35.39;31.07;98795.81;5051575;28;20192;-66
2022/09/16 08:14:28;;;;;;;10.93;3.50;;;;;;;35.44;30.69;98801.00;5052454;28;20204;-66
2022/09/16 08:16:55;;;;;;;8.68;3.35;;;;;;;35.60;30.46;98796.06;5051754;28;20714;-66
2022/09/16 08:19:22;;;;;;;15.20;3.78;;;;;;;35.72;29.68;98787.50;5051559;28;20223;-65
2022/09/16 08:21:48;;;;;;;22.20;4.57;;;;;;;35.85;30.17;98781.34;5051640;28;20673;-65
2022/09/16 08:24:17;;;;;;;8.43;3.20;;;;;;;35.96;29.75;98768.41;5051514;28;20734;-66
2022/09/16 08:26:43;;;;;;;12.45;3.88;;;;;;;36.06;29.70;98781.56;5051620;28;20625;-66
2022/09/16 08:29:10;;;;;;;11.07;3.42;;;;;;;36.09;30.00;98772.47;5052062;28;20247;-66
2022/09/16 08:31:37;;;;;;;26.75;4.10;;;;;;;36.29;29.29;98768.34;5071838;28;20664;-63
2022/09/16 08:34:04;;;;;;;8.00;3.47;;;;;;;36.44;29.49;98763.72;5071609;28;20257;-64
2022/09/16 08:36:32;;;;;;;7.88;3.10;;;;;;;36.40;29.32;98765.66;5072221;28;20192;-64
2022/09/16 08:38:58;;;;;;;8.77;3.58;;;;;;;36.34;28.96;98765.22;5071975;28;20196;-65
2022/09/16 08:41:49;;;;;;;14.18;3.47;;;;;;;36.37;29.12;98758.13;5074917;28;20195;-66
2022/09/16 08:44:29;;;;;;;11.40;3.35;;;;;;;36.36;29.58;98754.56;5088060;28;20200;-65
2022/09/16 08:46:59;;;;;;;10.32;3.60;;;;;;;36.10;28.71;98753.94;5055323;28;20195;-64
2022/09/16 08:49:33;;;;;;;9.85;3.42;;;;;;;35.96;29.49;98751.03;5080724;28;20234;-66
2022/09/16 08:52:04;;;;;;;9.95;3.47;;;;;;;35.97;29.65;98749.88;5074200;28;20225;-65
2022/09/16 08:54:37;;;;;;;14.10;3.97;;;;;;;35.84;30.00;98749.34;5076886;28;20199;-65
2022/09/16 08:57:11;;;;;;;9.18;3.53;;;;;;;35.71;30.17;98739.69;5075603;28;20625;-65
2022/09/16 08:59:43;;;;;;;8.20;3.40;;;;;;;35.40;30.00;98742.91;5075514;28;20253;-66
2022/09/16 09:02:37;;;;;;;13.95;3.55;;;;;;;35.26;30.81;98720.63;5075312;28;20188;-66
2022/09/16 09:05:14;;;;;;;10.52;3.35;;;;;;;35.25;29.87;98724.56;5075682;28;20208;-65
2022/09/16 09:07:51;;;;;;;17.40;3.85;;;;;;;35.04;30.31;98720.75;5075249;28;20729;-66
2022/09/16 09:10:25;;;;;;;11.35;3.60;;;;;;;35.28;29.99;98726.59;5075501;28;20641;-65
2022/09/16 09:12:59;;;;;;;15.45;3.75;;;;;;;35.07;30.23;98720.78;5075246;28;20226;-65
2022/09/16 09:15:41;;;;;;;11.70;3.65;;;;;;;35.13;30.79;98715.72;5075073;28;20602;-65
2022/09/16 09:18:28;;;;;;;11.75;4.13;;;;;;;34.34;32.36;98705.94;5074728;28;20192;-66
2022/09/16 09:21:10;;;;;;;13.27;4.03;;;;;;;34.00;32.40;98713.22;5060253;28;20610;-65
2022/09/16 09:24:05;;;;;;;13.25;4.30;;;;;;;34.54;31.42;98710.94;5055011;28;20574;-64
2022/09/16 09:26:41;;;;;;;24.52;4.47;;;;;;;34.34;32.50;98712.25;5055416;28;20188;-64
2022/09/16 09:29:34;;;;;;;21.08;4.00;;;;;;;34.25;31.89;98708.13;5074587;28;20719;-63
2022/09/16 09:32:15;;;;;;;16.33;4.05;;;;;;;34.33;32.14;98715.38;5074770;28;20188;-62
2022/09/16 09:34:59;;;;;;;21.90;4.53;;;;;;;33.74;32.73;98709.59;5074365;28;20192;-74
2022/09/16 09:37:43;;;;;;;15.45;3.78;;;;;;;33.95;32.53;98698.97;5074806;28;20199;-63
2022/09/16 09:40:15;;;;;;;14.45;4.10;;;;;;;33.88;32.62;98694.13;5074651;28;20587;-64
2022/09/16 09:42:48;;;;;;;20.80;3.75;;;;;;;33.76;33.22;98693.50;5074890;28;20253;-64
2022/09/16 09:45:24;;;;;;;11.32;3.65;;;;;;;34.11;32.91;98683.06;5074403;28;20241;-63
2022/09/16 09:47:55;;;;;;;11.13;4.07;;;;;;;34.40;31.91;98687.88;5074726;28;20257;-64
2022/09/16 09:50:28;;;;;;;17.73;4.40;;;;;;;33.46;33.25;98674.06;5068723;28;20188;-66
2022/09/16 09:53:06;;;;;;;17.35;4.25;;;;;;;33.88;32.80;98676.81;5071742;28;20183;-66
2022/09/16 09:55:34;;;;;;;14.88;4.10;;;;;;;33.63;33.89;98670.06;5050262;28;20566;-69
2022/09/16 09:58:11;;;;;;;19.83;4.85;;;;;;;33.24;33.90;98666.56;5047933;28;20204;-68
2022/09/16 10:00:39;;;;;;;18.35;4.13;;;;;;;33.32;33.02;98675.75;5056699;28;20249;-64
2022/09/16 10:03:10;;;;;;;15.17;3.77;;;;;;;33.50;33.04;98676.88;5071064;28;20188;-65
2022/09/16 10:05:37;;;;;;;11.07;3.83;;;;;;;33.71;32.60;98677.28;5065885;28;20269;-66
2022/09/16 10:08:09;;;;;;;13.05;3.55;;;;;;;33.08;33.82;98666.63;5069422;28;20195;-63
2022/09/16 10:10:46;;;;;;;17.50;3.75;;;;;;;33.29;33.09;98671.75;5069140;28;20200;-65
2022/09/16 10:13:13;;;;;;;21.90;4.37;;;;;;;33.27;32.97;98663.03;5066223;28;20225;-70
2022/09/16 10:15:41;;;;;;;14.47;4.53;;;;;;;33.07;33.01;98654.03;5068214;28;20285;-65
2022/09/16 10:18:14;;;;;;;13.50;3.83;;;;;;;33.22;33.68;98666.91;5066861;28;20192;-65
2022/09/16 10:20:44;;;;;;;11.55;4.25;;;;;;;33.40;32.51;98647.19;5068440;28;20204;-69
2022/09/16 10:23:13;;;;;;;18.77;4.32;;;;;;;33.77;32.20;98640.78;5062401;28;20295;-67
2022/09/16 10:25:40;;;;;;;14.02;3.55;;;;;;;33.73;31.94;98652.88;5067216;28;20288;-63
2022/09/16 10:28:19;;;;;;;13.27;3.53;;;;;;;34.08;32.10;98648.00;5058567;28;20254;-62
2022/09/16 10:30:50;;;;;;;12.30;3.65;;;;;;;34.29;31.23;98660.13;5069448;28;20290;-63
2022/09/16 10:33:24;;;;;;;16.75;4.03;;;;;;;34.45;30.58;98668.28;5072503;28;20186;-62
2022/09/16 10:35:56;;;;;;;16.10;4.47;;;;;;;34.70;30.15;98664.66;5069746;28;20188;-65
2022/09/16 10:38:24;;;;;;;14.85;3.35;;;;;;;35.05;29.67;98661.56;5070721;28;20206;-63
2022/09/16 10:40:53;;;;;;;17.27;3.95;;;;;;;35.18;29.05;98657.38;5071747;28;20721;-63
2022/09/16 10:43:20;;;;;;;17.77;4.30;;;;;;;35.02;29.14;98659.59;5072746;28;20238;-62
2022/09/16 10:45:50;;;;;;;13.02;3.95;;;;;;;35.33;29.17;98664.69;5072089;28;20223;-63
2022/09/16 10:48:20;;;;;;;13.93;4.22;;;;;;;35.50;28.97;98658.53;5073056;28;20264;-66
2022/09/16 10:50:58;;;;;;;6.90;3.50;;;;;;;35.57;28.33;98658.63;5070325;28;20573;-69
2022/09/16 10:53:30;;;;;;;11.23;3.85;;;;;;;35.73;28.23;98657.16;5066595;28;20257;-64
2022/09/16 10:55:58;;;;;;;13.82;3.60;;;;;;;35.45;27.97;98650.59;5044864;28;20197;-64
2022/09/16 10:58:25;;;;;;;10.73;3.92;;;;;;;35.06;27.80;98658.44;5047366;28;20192;-64
2022/09/16 11:01:05;;;;;;;13.45;3.88;;;;;;;35.13;28.19;98649.44;5054012;28;20257;-63
2022/09/16 11:04:14;;;;;;;25.35;4.38;;;;;;;35.64;27.53;98644.88;5068152;28;20275;-63
2022/09/16 11:06:55;;;;;;;11.98;3.92;;;;;;;35.92;26.69;98650.66;5051308;28;20615;-63
2022/09/16 11:09:31;;;;;;;14.00;4.03;;;;;;;36.16;26.57;98636.22;5067795;28;20289;-63
2022/09/16 11:12:13;;;;;;;19.73;3.65;;;;;;;36.48;26.64;98632.50;5070865;28;20244;-65
2022/09/16 11:14:46;;;;;;;16.92;4.28;;;;;;;36.70;26.25;98627.91;5064578;28;20187;-64
2022/09/16 11:17:30;;;;;;;15.80;4.30;;;;;;;36.72;26.31;98628.28;5063680;28;20237;-63
2022/09/16 11:20:18;;;;;;;14.63;4.00;;;;;;;36.96;25.68;98613.75;5054513;28;20192;-64
2022/09/16 11:22:55;;;;;;;11.00;4.05;;;;;;;36.69;26.03;98615.22;5056601;28;20180;-64
2022/09/16 11:25:40;;;;;;;10.65;3.78;;;;;;;36.28;26.32;98605.50;5059151;28;20211;-64
2022/09/16 11:28:25;;;;;;;11.23;3.60;;;;;;;36.35;26.31;98608.31;5059048;28;20275;-65
2022/09/16 11:31:00;;;;;;;11.00;4.15;;;;;;;36.41;26.18;98603.97;5056332;28;20177;-64
2022/09/16 11:33:36;;;;;;;17.92;3.45;;;;;;;36.65;25.98;98604.09;5057326;28;20180;-68
2022/09/16 11:36:15;;;;;;;15.10;4.03;;;;;;;36.79;25.64;98597.88;5058657;28;20192;-65
2022/09/16 11:38:50;;;;;;;12.00;3.78;;;;;;;36.83;25.50;98593.13;5057652;28;20201;-64
2022/09/16 11:41:24;;;;;;;23.25;3.80;;;;;;;36.84;25.45;98601.06;5055027;28;20542;-63
2022/09/16 11:44:12;;;;;;;17.98;3.88;;;;;;;36.83;25.88;98593.91;5055592;28;20188;-66
2022/09/16 11:46:51;;;;;;;14.75;3.95;;;;;;;36.77;25.96;98567.00;5041549;28;20833;-68